createdAt,value
2023-02-19T00:00:28.995Z,8.36
2023-02-19T00:01:32.825Z,8.26
2023-02-19T00:02:35.652Z,8.24
2023-02-19T00:03:38.810Z,8.17
2023-02-19T00:04:41.132Z,8.22
2023-02-19T00:05:43.723Z,8.24
2023-02-19T00:06:47.678Z,8.11
2023-02-19T00:07:50.276Z,8.10
2023-02-19T00:08:52.731Z,8.14
2023-02-19T00:09:54.897Z,8.10
2023-02-19T00:11:01.562Z,8.03
2023-02-19T00:12:04.081Z,7.93
2023-02-19T00:13:06.384Z,7.92
2023-02-19T00:14:09.396Z,7.98
2023-02-19T00:15:11.573Z,7.97
2023-02-19T00:16:21.872Z,7.92
2023-02-19T00:17:24.072Z,7.80
2023-02-19T00:18:26.304Z,7.82
2023-02-19T00:19:28.815Z,7.88
2023-02-19T00:20:30.992Z,7.83
2023-02-19T00:21:34.043Z,7.69
2023-02-19T00:22:36.435Z,7.74
2023-02-19T00:23:39.003Z,7.77
2023-02-19T00:24:41.860Z,7.77
2023-02-19T00:25:44.218Z,7.81
2023-02-19T00:26:47.487Z,7.83
2023-02-19T00:27:49.828Z,7.90
2023-02-19T00:28:53.552Z,7.96
2023-02-19T00:29:55.965Z,8.00
2023-02-19T00:31:27.591Z,7.95
2023-02-19T00:32:30.499Z,7.95
2023-02-19T00:33:32.716Z,7.99
2023-02-19T00:34:34.917Z,7.97
2023-02-19T00:35:37.639Z,7.94
2023-02-19T00:36:41.312Z,7.97
2023-02-19T00:37:43.734Z,8.01
2023-02-19T00:38:47.477Z,8.03
2023-02-19T00:39:49.786Z,8.02
2023-02-19T00:40:52.153Z,7.96
2023-02-19T00:41:54.367Z,7.97
2023-02-19T00:42:56.643Z,8.01
2023-02-19T00:44:04.426Z,7.97
2023-02-19T00:45:07.310Z,7.96
2023-02-19T00:46:09.532Z,8.00
2023-02-19T00:47:11.891Z,7.97
2023-02-19T00:48:14.878Z,7.96
2023-02-19T00:49:22.446Z,7.95
2023-02-19T00:50:24.806Z,7.90
2023-02-19T00:51:30.304Z,7.88
2023-02-19T00:52:32.726Z,7.84
2023-02-19T00:53:35.123Z,7.85
2023-02-19T00:54:37.374Z,7.82
2023-02-19T00:55:39.722Z,7.78
2023-02-19T00:56:42.509Z,7.78
2023-02-19T00:57:45.027Z,7.77
2023-02-19T00:58:48.012Z,7.75
2023-02-19T00:59:50.718Z,7.74
2023-02-19T01:00:52.903Z,7.82
2023-02-19T01:01:55.193Z,7.81
2023-02-19T01:02:57.831Z,7.67
2023-02-19T01:04:01.448Z,7.51
2023-02-19T01:05:04.130Z,7.49
2023-02-19T01:06:08.401Z,7.44
2023-02-19T01:07:10.845Z,7.49
2023-02-19T01:08:13.624Z,7.53
2023-02-19T01:09:16.026Z,7.53
2023-02-19T01:10:18.335Z,7.47
2023-02-19T01:11:20.716Z,7.45
2023-02-19T01:12:24.300Z,7.51
2023-02-19T01:13:27.020Z,7.48
2023-02-19T01:14:29.180Z,7.45
2023-02-19T01:15:33.069Z,7.52
2023-02-19T01:16:35.572Z,7.48
2023-02-19T01:17:38.058Z,7.51
2023-02-19T01:18:40.443Z,7.51
2023-02-19T01:19:42.819Z,7.57
2023-02-19T01:20:45.080Z,7.57
2023-02-19T01:21:47.269Z,7.46
2023-02-19T01:22:49.669Z,7.43
2023-02-19T01:23:53.987Z,7.46
2023-02-19T01:24:56.376Z,7.45
2023-02-19T01:25:58.736Z,7.48
2023-02-19T01:27:01.375Z,7.41
2023-02-19T01:28:04.193Z,7.43
2023-02-19T01:29:06.420Z,7.47
2023-02-19T01:30:10.598Z,7.51
2023-02-19T01:31:19.541Z,7.56
2023-02-19T01:32:21.834Z,7.62
2023-02-19T01:33:24.212Z,7.65
2023-02-19T01:34:27.060Z,7.62
2023-02-19T01:35:29.224Z,7.66
2023-02-19T01:36:33.737Z,7.69
2023-02-19T01:37:36.166Z,7.76
2023-02-19T01:38:38.701Z,7.67
2023-02-19T01:39:41.532Z,7.70
2023-02-19T01:40:43.703Z,7.61
2023-02-19T01:41:45.900Z,7.63
2023-02-19T01:42:48.348Z,7.56
2023-02-19T01:44:12.878Z,7.50
2023-02-19T01:45:29.480Z,7.51
2023-02-19T01:46:33.786Z,7.53
2023-02-19T01:47:36.022Z,7.56
2023-02-19T01:48:39.769Z,7.61
2023-02-19T01:49:51.392Z,7.62
2023-02-19T01:51:06.079Z,7.63
2023-02-19T01:52:25.856Z,7.64
2023-02-19T01:53:34.010Z,7.58
2023-02-19T01:54:41.440Z,7.58
2023-02-19T01:55:47.183Z,7.58
2023-02-19T01:56:50.523Z,7.62
2023-02-19T01:57:55.519Z,7.65
2023-02-19T01:58:59.166Z,7.62
2023-02-19T02:00:12.093Z,7.58
2023-02-19T02:01:16.920Z,7.61
2023-02-19T02:02:19.237Z,7.61
2023-02-19T02:03:21.869Z,7.66
2023-02-19T02:04:24.335Z,7.67
2023-02-19T02:05:49.131Z,7.65
2023-02-19T02:06:56.642Z,7.69
2023-02-19T02:08:19.553Z,7.56
2023-02-19T02:09:46.723Z,7.56
2023-02-19T02:10:50.103Z,7.60
2023-02-19T02:11:53.310Z,7.61
2023-02-19T02:12:58.557Z,7.66
2023-02-19T02:14:03.055Z,7.59
2023-02-19T02:15:06.213Z,7.61
2023-02-19T02:16:42.901Z,7.65
2023-02-19T02:18:02.632Z,7.63
2023-02-19T02:19:23.843Z,7.66
2023-02-19T02:20:29.234Z,7.70
2023-02-19T02:21:47.765Z,7.67
2023-02-19T02:23:03.739Z,7.70
2023-02-19T02:24:39.444Z,7.76
2023-02-19T02:26:08.559Z,7.71
2023-02-19T02:27:30.974Z,7.71
2023-02-19T02:28:53.371Z,7.74
2023-02-19T02:30:20.002Z,7.77
2023-02-19T02:31:42.916Z,7.80
2023-02-19T02:33:04.716Z,7.86
2023-02-19T02:34:12.865Z,7.91
2023-02-19T02:35:19.283Z,7.95
2023-02-19T02:36:32.884Z,8.04
2023-02-19T02:37:39.266Z,8.00
2023-02-19T02:38:44.277Z,7.94
2023-02-19T02:39:47.395Z,7.98
2023-02-19T02:40:50.081Z,7.96
2023-02-19T02:42:17.015Z,7.97
2023-02-19T02:43:25.998Z,7.97
2023-02-19T02:45:02.935Z,8.03
2023-02-19T02:46:10.513Z,8.07
2023-02-19T02:47:33.150Z,8.02
2023-02-19T02:48:41.717Z,8.09
2023-02-19T02:50:04.704Z,8.09
2023-02-19T02:51:20.275Z,8.04
2023-02-19T02:52:57.809Z,8.05
2023-02-19T02:54:25.507Z,8.03
2023-02-19T02:55:34.607Z,8.14
2023-02-19T02:56:37.466Z,8.24
2023-02-19T02:57:40.503Z,8.23
2023-02-19T02:58:44.001Z,8.19
2023-02-19T02:59:49.091Z,8.24
2023-02-19T03:01:25.994Z,8.19
2023-02-19T03:02:31.257Z,8.07
2023-02-19T03:03:37.285Z,8.05
2023-02-19T03:05:04.052Z,7.98
2023-02-19T03:06:11.230Z,8.02
2023-02-19T03:07:13.603Z,8.02
2023-02-19T03:08:25.831Z,8.08
2023-02-19T03:09:40.690Z,8.07
2023-02-19T03:10:49.124Z,8.04
2023-02-19T03:12:11.589Z,7.92
2023-02-19T03:13:49.473Z,7.93
2023-02-19T03:15:16.114Z,7.92
2023-02-19T03:16:45.043Z,7.96
2023-02-19T03:18:14.149Z,7.98
2023-02-19T03:19:20.341Z,7.87
2023-02-19T03:20:25.316Z,7.82
2023-02-19T03:21:29.170Z,7.87
2023-02-19T03:22:34.605Z,7.85
2023-02-19T03:23:57.065Z,7.88
2023-02-19T03:25:28.617Z,7.88
2023-02-19T03:26:33.615Z,7.94
2023-02-19T03:27:39.115Z,7.97
2023-02-19T03:29:02.320Z,8.03
2023-02-19T03:30:17.978Z,8.12
2023-02-19T03:31:24.753Z,8.16
2023-02-19T03:32:43.520Z,8.16
2023-02-19T03:33:50.466Z,8.13
2023-02-19T03:35:00.161Z,8.13
2023-02-19T03:36:07.356Z,8.09
2023-02-19T03:37:15.569Z,8.07
2023-02-19T03:38:30.008Z,8.06
2023-02-19T03:39:33.277Z,8.03
2023-02-19T03:40:48.141Z,8.00
2023-02-19T03:42:15.445Z,7.84
2023-02-19T03:43:24.714Z,7.72
2023-02-19T03:44:48.132Z,7.84
2023-02-19T03:46:08.372Z,7.90
2023-02-19T03:47:26.584Z,7.79
2023-02-19T03:48:38.461Z,7.67
2023-02-19T03:49:56.729Z,7.63
2023-02-19T03:51:12.990Z,7.58
2023-02-19T03:52:19.401Z,7.57
2023-02-19T03:53:38.097Z,7.53
2023-02-19T03:55:01.065Z,7.59
2023-02-19T03:56:10.325Z,7.62
2023-02-19T03:57:20.938Z,7.56
2023-02-19T03:59:01.309Z,7.54
2023-02-19T04:00:15.786Z,7.47
2023-02-19T04:01:30.844Z,7.50
2023-02-19T04:02:41.520Z,7.51
2023-02-19T04:03:54.356Z,7.61
2023-02-19T04:05:14.255Z,7.60
2023-02-19T04:06:28.295Z,7.58
2023-02-19T04:07:34.946Z,7.63
2023-02-19T04:08:40.050Z,7.65
2023-02-19T04:09:48.304Z,7.62
2023-02-19T04:10:55.015Z,7.65
2023-02-19T04:12:02.047Z,7.65
2023-02-19T04:13:11.480Z,7.62
2023-02-19T04:14:20.223Z,7.58
2023-02-19T04:15:28.586Z,7.61
2023-02-19T04:16:34.774Z,7.66
2023-02-19T04:17:47.496Z,7.68
2023-02-19T04:18:54.814Z,7.64
2023-02-19T04:19:59.163Z,7.57
2023-02-19T04:21:03.408Z,7.51
2023-02-19T04:22:08.248Z,7.49
2023-02-19T04:23:12.222Z,7.47
2023-02-19T04:24:25.255Z,7.50
2023-02-19T04:25:29.275Z,7.55
2023-02-19T04:26:33.724Z,7.57
2023-02-19T04:27:38.516Z,7.64
2023-02-19T04:28:43.036Z,7.66
2023-02-19T04:29:45.488Z,7.64
2023-02-19T04:30:47.796Z,7.65
2023-02-19T04:31:50.344Z,7.53
2023-02-19T04:32:52.547Z,7.51
2023-02-19T04:33:54.749Z,7.40
2023-02-19T04:34:56.935Z,7.31
2023-02-19T04:35:59.140Z,7.30
2023-02-19T04:37:01.302Z,7.36
2023-02-19T04:38:03.613Z,7.42
2023-02-19T04:39:05.761Z,7.35
2023-02-19T04:40:08.845Z,7.23
2023-02-19T04:41:11.350Z,7.15
2023-02-19T04:42:13.730Z,7.07
2023-02-19T04:43:16.104Z,7.08
2023-02-19T04:44:18.290Z,7.09
2023-02-19T04:45:20.687Z,7.11
2023-02-19T04:46:22.942Z,7.18
2023-02-19T04:47:25.108Z,7.22
2023-02-19T04:48:27.786Z,7.24
2023-02-19T04:49:30.142Z,7.21
2023-02-19T04:50:32.527Z,7.20
2023-02-19T04:51:34.940Z,7.13
2023-02-19T04:52:37.335Z,7.10
2023-02-19T04:53:39.579Z,7.10
2023-02-19T04:54:41.924Z,7.11
2023-02-19T04:55:44.536Z,7.11
2023-02-19T04:56:46.708Z,7.11
2023-02-19T04:57:49.113Z,7.09
2023-02-19T04:58:51.426Z,7.11
2023-02-19T04:59:53.797Z,7.15
2023-02-19T05:00:56.611Z,7.10
2023-02-19T05:01:58.912Z,7.04
2023-02-19T05:03:01.975Z,7.00
2023-02-19T05:04:04.996Z,6.94
2023-02-19T05:05:07.496Z,6.89
2023-02-19T05:06:13.092Z,6.79
2023-02-19T05:07:15.426Z,6.73
2023-02-19T05:08:17.827Z,6.67
2023-02-19T05:09:20.190Z,6.65
2023-02-19T05:10:22.371Z,6.59
2023-02-19T05:11:24.820Z,6.60
2023-02-19T05:12:27.077Z,6.57
2023-02-19T05:13:29.994Z,6.63
2023-02-19T05:14:32.193Z,6.61
2023-02-19T05:15:34.614Z,6.64
2023-02-19T05:16:37.008Z,6.62
2023-02-19T05:17:39.211Z,6.61
2023-02-19T05:18:42.820Z,6.64
2023-02-19T05:19:44.981Z,6.60
2023-02-19T05:20:47.323Z,6.63
2023-02-19T05:21:49.662Z,6.71
2023-02-19T05:22:51.853Z,6.74
2023-02-19T05:23:54.217Z,6.74
2023-02-19T05:24:56.480Z,6.75
2023-02-19T05:25:58.652Z,6.83
2023-02-19T05:27:01.257Z,6.83
2023-02-19T05:28:18.751Z,6.82
2023-02-19T05:29:20.967Z,6.80
2023-02-19T05:30:23.388Z,6.83
2023-02-19T05:31:25.725Z,6.82
2023-02-19T05:32:27.923Z,6.82
2023-02-19T05:33:30.120Z,6.77
2023-02-19T05:34:32.356Z,6.72
2023-02-19T05:35:34.532Z,6.76
2023-02-19T05:36:37.967Z,6.75
2023-02-19T05:37:40.178Z,6.78
2023-02-19T05:38:42.599Z,6.78
2023-02-19T05:39:44.990Z,6.72
2023-02-19T05:40:47.538Z,6.64
2023-02-19T05:41:49.715Z,6.63
2023-02-19T05:42:51.886Z,6.62
2023-02-19T05:43:55.082Z,6.62
2023-02-19T05:44:57.502Z,6.63
2023-02-19T05:45:59.657Z,6.64
2023-02-19T05:47:01.810Z,6.58
2023-02-19T05:48:05.464Z,6.29
2023-02-19T05:49:07.708Z,6.05
2023-02-19T05:50:09.923Z,5.98
2023-02-19T05:51:15.092Z,5.90
2023-02-19T05:52:17.453Z,5.67
2023-02-19T05:53:19.619Z,5.59
2023-02-19T05:54:21.983Z,5.62
2023-02-19T05:55:24.206Z,5.62
2023-02-19T05:56:26.338Z,5.50
2023-02-19T05:57:28.883Z,5.43
2023-02-19T05:58:31.065Z,5.46
2023-02-19T05:59:33.414Z,5.46
2023-02-19T06:00:35.797Z,5.38
2023-02-19T06:01:38.409Z,5.31
2023-02-19T06:02:41.029Z,5.39
2023-02-19T06:03:43.305Z,5.21
2023-02-19T06:04:45.569Z,5.11
2023-02-19T06:05:47.879Z,4.84
2023-02-19T06:06:50.764Z,4.71
2023-02-19T06:07:53.221Z,4.59
2023-02-19T06:08:55.842Z,4.61
2023-02-19T06:09:58.227Z,4.67
2023-02-19T06:11:00.395Z,4.73
2023-02-19T06:12:02.778Z,4.82
2023-02-19T06:13:05.171Z,4.84
2023-02-19T06:14:07.595Z,4.79
2023-02-19T06:15:09.819Z,4.83
2023-02-19T06:16:12.318Z,4.69
2023-02-19T06:17:15.504Z,4.74
2023-02-19T06:18:17.661Z,4.66
2023-02-19T06:19:19.873Z,4.68
2023-02-19T06:20:22.293Z,4.63
2023-02-19T06:21:24.463Z,4.70
2023-02-19T06:22:28.056Z,4.61
2023-02-19T06:23:30.840Z,4.60
2023-02-19T06:24:33.557Z,4.59
2023-02-19T06:25:35.743Z,4.61
2023-02-19T06:26:38.528Z,4.23
2023-02-19T06:27:41.133Z,4.11
2023-02-19T06:28:44.303Z,4.15
2023-02-19T06:29:48.669Z,4.14
2023-02-19T06:30:51.656Z,4.10
2023-02-19T06:31:53.968Z,4.09
2023-02-19T06:32:56.761Z,4.23
2023-02-19T06:33:59.008Z,4.33
2023-02-19T06:35:01.230Z,4.44
2023-02-19T06:36:04.509Z,4.53
2023-02-19T06:37:06.755Z,4.56
2023-02-19T06:38:09.119Z,4.62
2023-02-19T06:39:11.341Z,4.72
2023-02-19T06:40:13.551Z,4.78
2023-02-19T06:41:16.180Z,4.81
2023-02-19T06:42:19.218Z,4.80
2023-02-19T06:43:21.750Z,4.82
2023-02-19T06:44:24.751Z,4.79
2023-02-19T06:45:27.165Z,4.81
2023-02-19T06:46:29.440Z,4.77
2023-02-19T06:47:32.973Z,4.77
2023-02-19T06:48:35.979Z,4.77
2023-02-19T06:49:40.243Z,4.81
2023-02-19T06:50:42.435Z,4.81
2023-02-19T06:51:44.775Z,4.84
2023-02-19T06:52:46.944Z,4.82
2023-02-19T06:53:49.491Z,4.76
2023-02-19T06:54:51.697Z,4.74
2023-02-19T06:56:05.445Z,4.70
2023-02-19T06:57:07.812Z,4.74
2023-02-19T06:58:10.596Z,4.81
2023-02-19T06:59:16.878Z,4.87
2023-02-19T07:00:19.365Z,4.95
2023-02-19T07:01:23.095Z,4.85
2023-02-19T07:02:25.323Z,4.89
2023-02-19T07:03:28.111Z,4.85
2023-02-19T07:04:30.388Z,4.88
2023-02-19T07:05:32.658Z,4.90
2023-02-19T07:06:35.834Z,4.88
2023-02-19T07:07:38.042Z,4.89
2023-02-19T07:08:40.646Z,4.91
2023-02-19T07:09:42.807Z,4.94
2023-02-19T07:10:45.680Z,4.98
2023-02-19T07:11:47.886Z,5.01
2023-02-19T07:12:50.233Z,5.05
2023-02-19T07:13:56.904Z,4.99
2023-02-19T07:14:59.208Z,5.03
2023-02-19T07:16:03.592Z,5.12
2023-02-19T07:17:05.813Z,5.19
2023-02-19T07:18:10.502Z,5.23
2023-02-19T07:19:13.340Z,5.19
2023-02-19T07:20:15.544Z,5.19
2023-02-19T07:21:19.143Z,5.00
2023-02-19T07:22:21.345Z,4.97
2023-02-19T07:23:23.761Z,4.82
2023-02-19T07:24:25.993Z,4.95
2023-02-19T07:25:28.164Z,5.07
2023-02-19T07:26:30.532Z,5.06
2023-02-19T07:27:32.949Z,5.13
2023-02-19T07:28:35.411Z,5.03
2023-02-19T07:29:37.635Z,5.06
2023-02-19T07:30:40.120Z,5.01
2023-02-19T07:31:43.245Z,4.90
2023-02-19T07:32:45.653Z,4.85
2023-02-19T07:33:48.515Z,4.87
2023-02-19T07:34:50.683Z,4.99
2023-02-19T07:35:53.090Z,5.00
2023-02-19T07:36:55.245Z,5.04
2023-02-19T07:37:57.429Z,5.00
2023-02-19T07:39:00.615Z,4.98
2023-02-19T07:40:03.602Z,5.01
2023-02-19T07:41:06.895Z,5.07
2023-02-19T07:42:09.292Z,5.10
2023-02-19T07:43:13.262Z,5.10
2023-02-19T07:44:16.991Z,5.03
2023-02-19T07:45:19.236Z,4.90
2023-02-19T07:46:22.326Z,4.93
2023-02-19T07:47:24.495Z,4.97
2023-02-19T07:48:26.844Z,4.97
2023-02-19T07:49:29.228Z,5.03
2023-02-19T07:50:31.469Z,5.05
2023-02-19T07:51:33.690Z,5.05
2023-02-19T07:52:36.036Z,5.13
2023-02-19T07:53:38.326Z,5.12
2023-02-19T07:54:40.878Z,5.17
2023-02-19T07:55:43.050Z,5.18
2023-02-19T07:56:45.231Z,5.19
2023-02-19T07:57:47.589Z,5.22
2023-02-19T07:58:49.806Z,5.14
2023-02-19T07:59:52.454Z,5.19
2023-02-19T08:00:54.645Z,5.16
2023-02-19T08:02:15.144Z,5.00
2023-02-19T08:03:17.547Z,4.89
2023-02-19T08:04:19.784Z,4.92
2023-02-19T08:05:22.066Z,4.98
2023-02-19T08:06:24.426Z,5.04
2023-02-19T08:07:34.526Z,5.04
2023-02-19T08:08:37.861Z,5.06
2023-02-19T08:09:40.476Z,5.11
2023-02-19T08:11:01.397Z,5.16
2023-02-19T08:12:22.531Z,5.35
2023-02-19T08:13:27.428Z,5.19
2023-02-19T08:14:29.517Z,5.26
2023-02-19T08:15:33.135Z,5.35
2023-02-19T08:16:43.043Z,5.35
2023-02-19T08:17:45.901Z,5.34
2023-02-19T08:18:48.563Z,5.44
2023-02-19T08:19:50.955Z,5.41
2023-02-19T08:20:55.202Z,5.29
2023-02-19T08:21:57.370Z,5.19
2023-02-19T08:22:59.584Z,5.10
2023-02-19T08:24:01.741Z,5.10
2023-02-19T08:25:03.968Z,5.06
2023-02-19T08:26:07.081Z,5.03
2023-02-19T08:27:09.264Z,5.10
2023-02-19T08:28:12.004Z,5.11
2023-02-19T08:29:14.271Z,5.10
2023-02-19T08:30:16.652Z,5.09
2023-02-19T08:31:19.141Z,5.04
2023-02-19T08:32:21.436Z,5.05
2023-02-19T08:33:23.582Z,5.04
2023-02-19T08:34:25.797Z,5.12
2023-02-19T08:35:28.874Z,5.14
2023-02-19T08:36:31.187Z,5.17
2023-02-19T08:37:33.349Z,5.10
2023-02-19T08:38:36.810Z,5.12
2023-02-19T08:39:39.019Z,5.15
2023-02-19T08:40:41.626Z,5.22
2023-02-19T08:41:43.894Z,5.43
2023-02-19T08:42:46.255Z,5.44
2023-02-19T08:43:48.452Z,5.51
2023-02-19T08:44:50.864Z,5.59
2023-02-19T08:45:55.096Z,5.63
2023-02-19T08:46:57.308Z,5.72
2023-02-19T08:48:00.367Z,5.84
2023-02-19T08:49:02.862Z,5.91
2023-02-19T08:50:06.919Z,5.99
2023-02-19T08:51:11.569Z,6.03
2023-02-19T08:52:14.209Z,6.05
2023-02-19T08:53:16.374Z,6.08
2023-02-19T08:54:18.668Z,5.87
2023-02-19T08:55:21.044Z,5.83
2023-02-19T08:56:23.583Z,5.86
2023-02-19T08:57:26.886Z,5.89
2023-02-19T08:58:29.040Z,5.98
2023-02-19T08:59:31.968Z,6.02
2023-02-19T09:00:34.507Z,6.03
2023-02-19T09:01:36.848Z,6.06
2023-02-19T09:02:42.432Z,6.05
2023-02-19T09:03:45.741Z,6.03
2023-02-19T09:04:48.337Z,5.99
2023-02-19T09:05:50.665Z,6.01
2023-02-19T09:06:53.020Z,6.01
2023-02-19T09:07:55.488Z,6.09
2023-02-19T09:08:57.696Z,6.18
2023-02-19T09:10:00.757Z,6.29
2023-02-19T09:11:04.971Z,6.27
2023-02-19T09:12:08.461Z,6.09
2023-02-19T09:13:10.975Z,6.10
2023-02-19T09:14:13.380Z,6.15
2023-02-19T09:15:15.603Z,6.24
2023-02-19T09:16:17.796Z,6.26
2023-02-19T09:17:22.666Z,6.42
2023-02-19T09:18:25.693Z,6.46
2023-02-19T09:19:28.660Z,6.47
2023-02-19T09:20:30.899Z,6.48
2023-02-19T09:21:33.112Z,6.55
2023-02-19T09:22:35.479Z,6.74
2023-02-19T09:23:38.217Z,6.80
2023-02-19T09:24:40.788Z,6.58
2023-02-19T09:25:43.000Z,6.31
2023-02-19T09:26:45.347Z,6.13
2023-02-19T09:27:47.716Z,6.17
2023-02-19T09:28:49.890Z,6.17
2023-02-19T09:29:52.486Z,6.25
2023-02-19T09:30:54.986Z,6.34
2023-02-19T09:32:00.955Z,6.45
2023-02-19T09:33:05.552Z,6.57
2023-02-19T09:34:08.245Z,6.62
2023-02-19T09:35:10.796Z,6.57
2023-02-19T09:36:14.416Z,6.50
2023-02-19T09:37:16.589Z,6.32
2023-02-19T09:38:18.997Z,6.34
2023-02-19T09:39:21.816Z,6.40
2023-02-19T09:40:24.215Z,6.50
2023-02-19T09:41:32.370Z,6.54
2023-02-19T09:42:34.571Z,6.41
2023-02-19T09:43:37.621Z,6.25
2023-02-19T09:44:43.487Z,6.30
2023-02-19T09:45:46.304Z,6.34
2023-02-19T09:46:51.568Z,6.46
2023-02-19T09:47:58.002Z,6.51
2023-02-19T09:49:13.152Z,6.37
2023-02-19T09:50:22.848Z,6.30
2023-02-19T09:51:29.542Z,6.26
2023-02-19T09:52:56.944Z,6.39
2023-02-19T09:53:59.651Z,6.36
2023-02-19T09:55:13.309Z,6.47
2023-02-19T09:56:16.183Z,6.53
2023-02-19T09:57:21.423Z,6.76
2023-02-19T09:58:25.719Z,6.95
2023-02-19T09:59:40.657Z,6.95
2023-02-19T10:00:43.352Z,6.97
2023-02-19T10:01:49.297Z,6.76
2023-02-19T10:02:55.045Z,6.61
2023-02-19T10:03:57.842Z,6.44
2023-02-19T10:05:01.658Z,6.38
2023-02-19T10:06:14.221Z,6.45
2023-02-19T10:07:23.729Z,6.52
2023-02-19T10:08:26.197Z,6.58
2023-02-19T10:09:30.648Z,6.68
2023-02-19T10:10:35.349Z,6.66
2023-02-19T10:11:37.756Z,6.72
2023-02-19T10:12:45.720Z,6.67
2023-02-19T10:13:51.661Z,6.66
2023-02-19T10:15:01.577Z,6.58
2023-02-19T10:16:06.817Z,6.54
2023-02-19T10:17:21.992Z,6.53
2023-02-19T10:18:28.375Z,6.71
2023-02-19T10:19:31.480Z,6.81
2023-02-19T10:20:34.114Z,6.92
2023-02-19T10:21:38.343Z,6.87
2023-02-19T10:22:40.595Z,6.92
2023-02-19T10:23:44.269Z,6.95
2023-02-19T10:24:51.794Z,7.14
2023-02-19T10:25:57.242Z,7.08
2023-02-19T10:27:00.870Z,7.01
2023-02-19T10:28:04.346Z,7.00
2023-02-19T10:29:06.981Z,7.11
2023-02-19T10:30:31.481Z,7.17
2023-02-19T10:31:33.713Z,7.05
2023-02-19T10:32:36.026Z,6.86
2023-02-19T10:33:52.717Z,6.62
2023-02-19T10:35:15.453Z,6.48
2023-02-19T10:36:25.027Z,6.43
2023-02-19T10:37:29.523Z,6.45
2023-02-19T10:38:35.701Z,6.44
2023-02-19T10:39:45.384Z,6.39
2023-02-19T10:40:48.629Z,6.25
2023-02-19T10:41:51.655Z,6.22
2023-02-19T10:42:59.612Z,6.08
2023-02-19T10:44:07.069Z,5.88
2023-02-19T10:45:19.084Z,5.95
2023-02-19T10:46:28.426Z,5.87
2023-02-19T10:47:33.332Z,5.92
2023-02-19T10:48:40.847Z,5.91
2023-02-19T10:49:46.460Z,5.97
2023-02-19T10:50:58.244Z,6.00
2023-02-19T10:52:10.817Z,6.05
2023-02-19T10:53:23.993Z,6.17
2023-02-19T10:54:30.236Z,6.18
2023-02-19T10:55:37.798Z,6.27
2023-02-19T10:56:41.414Z,6.33
2023-02-19T10:57:43.589Z,6.35
2023-02-19T10:58:47.472Z,6.22
2023-02-19T11:00:23.203Z,6.23
2023-02-19T11:01:29.262Z,6.31
2023-02-19T11:02:31.855Z,6.29
2023-02-19T11:03:34.234Z,6.26
2023-02-19T11:04:38.297Z,6.31
2023-02-19T11:05:52.551Z,6.26
2023-02-19T11:06:55.241Z,6.22
2023-02-19T11:07:57.755Z,6.26
2023-02-19T11:09:01.375Z,6.26
2023-02-19T11:10:05.758Z,6.41
2023-02-19T11:11:08.004Z,6.45
2023-02-19T11:12:11.792Z,6.42
2023-02-19T11:13:18.707Z,6.27
2023-02-19T11:14:25.105Z,6.12
2023-02-19T11:15:31.241Z,6.07
2023-02-19T11:16:44.871Z,6.09
2023-02-19T11:17:56.737Z,6.05
2023-02-19T11:18:59.257Z,6.12
2023-02-19T11:20:14.324Z,6.15
2023-02-19T11:21:33.069Z,6.11
2023-02-19T11:22:41.979Z,6.15
2023-02-19T11:23:46.642Z,6.25
2023-02-19T11:24:54.566Z,6.29
2023-02-19T11:26:03.499Z,6.29
2023-02-19T11:27:16.337Z,6.37
2023-02-19T11:28:37.039Z,6.51
2023-02-19T11:29:39.695Z,6.58
2023-02-19T11:30:43.704Z,6.64
2023-02-19T11:31:46.453Z,6.69
2023-02-19T11:32:48.765Z,6.74
2023-02-19T11:33:56.335Z,6.81
2023-02-19T11:35:25.730Z,6.77
2023-02-19T11:36:38.457Z,6.85
2023-02-19T11:38:13.800Z,6.68
2023-02-19T11:39:30.746Z,6.64
2023-02-19T11:41:15.402Z,6.49
2023-02-19T11:42:29.038Z,6.41
2023-02-19T11:43:44.648Z,6.35
2023-02-19T11:45:12.753Z,6.24
2023-02-19T11:46:32.754Z,6.28
2023-02-19T11:47:53.149Z,6.42
2023-02-19T11:49:13.741Z,6.55
2023-02-19T11:50:27.670Z,6.74
2023-02-19T11:51:47.569Z,6.76
2023-02-19T11:53:21.847Z,6.67
2023-02-19T11:54:26.624Z,6.54
2023-02-19T11:55:53.457Z,6.52
2023-02-19T11:57:33.586Z,6.61
2023-02-19T11:58:43.037Z,6.60
2023-02-19T12:00:09.446Z,6.68
2023-02-19T12:01:44.860Z,6.66
2023-02-19T12:03:05.876Z,6.62
2023-02-19T12:04:17.065Z,6.63
2023-02-19T12:05:34.758Z,6.44
2023-02-19T12:06:55.181Z,6.33
2023-02-19T12:08:28.282Z,6.33
2023-02-19T12:09:45.611Z,6.28
2023-02-19T12:11:09.548Z,6.22
2023-02-19T12:12:32.659Z,6.25
2023-02-19T12:13:56.746Z,6.30
2023-02-19T12:15:22.515Z,6.43
2023-02-19T12:16:30.814Z,6.33
2023-02-19T12:18:15.879Z,6.42
2023-02-19T12:19:40.224Z,6.46
2023-02-19T12:21:22.995Z,6.56
2023-02-19T12:22:34.012Z,6.54
2023-02-19T12:23:48.813Z,6.67
2023-02-19T12:25:16.334Z,6.72
2023-02-19T12:26:27.675Z,6.86
2023-02-19T12:27:48.798Z,6.90
2023-02-19T12:29:36.011Z,7.07
2023-02-19T12:30:59.665Z,7.10
2023-02-19T12:32:31.091Z,7.20
2023-02-19T12:33:46.907Z,7.14
2023-02-19T12:35:15.850Z,7.34
2023-02-19T12:36:46.616Z,7.27
2023-02-19T12:38:05.619Z,7.19
2023-02-19T12:39:08.234Z,6.83
2023-02-19T12:40:28.064Z,6.87
2023-02-19T12:41:35.863Z,6.91
2023-02-19T12:42:44.122Z,6.91
2023-02-19T12:43:58.869Z,6.84
2023-02-19T12:45:11.049Z,6.83
2023-02-19T12:46:22.217Z,6.96
2023-02-19T12:47:41.086Z,6.98
2023-02-19T12:48:53.363Z,7.09
2023-02-19T12:50:23.324Z,7.23
2023-02-19T12:51:38.997Z,7.35
2023-02-19T12:52:46.526Z,7.38
2023-02-19T12:53:58.798Z,7.48
2023-02-19T12:55:17.171Z,7.50
2023-02-19T12:56:28.853Z,7.57
2023-02-19T12:57:37.072Z,7.74
2023-02-19T12:58:50.607Z,7.79
2023-02-19T13:00:18.872Z,7.74
2023-02-19T13:01:28.097Z,7.72
2023-02-19T13:02:38.998Z,7.52
2023-02-19T13:03:49.337Z,7.54
2023-02-19T13:05:11.257Z,7.64
2023-02-19T13:06:36.431Z,7.71
2023-02-19T13:07:47.406Z,7.61
2023-02-19T13:09:06.609Z,7.53
2023-02-19T13:10:53.802Z,7.52
2023-02-19T13:11:55.988Z,7.65
2023-02-19T13:13:04.834Z,7.65
2023-02-19T13:14:27.312Z,7.68
2023-02-19T13:15:37.205Z,7.67
2023-02-19T13:16:45.911Z,7.66
2023-02-19T13:17:53.966Z,7.70
2023-02-19T13:19:00.269Z,7.58
2023-02-19T13:20:27.672Z,7.50
2023-02-19T13:21:55.489Z,7.47
2023-02-19T13:23:16.386Z,7.61
2023-02-19T13:24:30.652Z,7.47
2023-02-19T13:26:15.054Z,7.49
2023-02-19T13:27:45.147Z,7.44
2023-02-19T13:29:12.544Z,7.44
2023-02-19T13:30:38.304Z,7.49
2023-02-19T13:32:11.305Z,7.32
2023-02-19T13:33:34.778Z,7.25
2023-02-19T13:34:49.120Z,7.11
2023-02-19T13:36:06.334Z,7.22
2023-02-19T13:37:10.180Z,7.15
2023-02-19T13:38:13.775Z,7.16
2023-02-19T13:39:19.609Z,7.16
2023-02-19T13:40:35.030Z,7.21
2023-02-19T13:41:50.895Z,7.09
2023-02-19T13:42:59.803Z,7.03
2023-02-19T13:44:05.830Z,7.07
2023-02-19T13:45:23.342Z,7.08
2023-02-19T13:46:33.191Z,7.10
2023-02-19T13:47:59.912Z,7.00
2023-02-19T13:49:39.870Z,7.04
2023-02-19T13:50:42.683Z,7.00
2023-02-19T13:51:51.547Z,7.05
2023-02-19T13:52:55.251Z,7.18
2023-02-19T13:54:00.223Z,7.09
2023-02-19T13:55:42.319Z,7.04
2023-02-19T13:56:44.984Z,7.05
2023-02-19T13:57:47.355Z,7.06
2023-02-19T13:58:54.317Z,7.04
2023-02-19T13:59:57.987Z,7.07
2023-02-19T14:01:11.589Z,7.18
2023-02-19T14:02:26.779Z,7.18
2023-02-19T14:03:51.981Z,7.06
2023-02-19T14:05:00.495Z,7.14
2023-02-19T14:06:06.433Z,7.14
2023-02-19T14:07:20.972Z,7.18
2023-02-19T14:08:58.441Z,7.08
2023-02-19T14:10:01.916Z,7.04
2023-02-19T14:11:05.121Z,7.00
2023-02-19T14:12:07.901Z,6.86
2023-02-19T14:13:10.084Z,6.86
2023-02-19T14:14:25.775Z,6.92
2023-02-19T14:15:37.051Z,6.92
2023-02-19T14:16:39.216Z,6.96
2023-02-19T14:17:45.992Z,6.96
2023-02-19T14:18:50.417Z,6.82
2023-02-19T14:19:56.968Z,6.89
2023-02-19T14:21:15.267Z,6.97
2023-02-19T14:23:01.678Z,7.10
2023-02-19T14:24:05.438Z,7.10
2023-02-19T14:25:31.093Z,7.19
2023-02-19T14:26:34.595Z,7.17
2023-02-19T14:27:38.516Z,7.16
2023-02-19T14:28:45.444Z,7.00
2023-02-19T14:29:48.663Z,7.00
2023-02-19T14:30:50.829Z,6.99
2023-02-19T14:31:53.352Z,6.95
2023-02-19T14:33:09.745Z,6.98
2023-02-19T14:34:25.188Z,6.95
2023-02-19T14:35:37.559Z,6.91
2023-02-19T14:37:01.326Z,6.98
2023-02-19T14:38:05.182Z,7.03
2023-02-19T14:39:12.423Z,6.98
2023-02-19T14:40:26.984Z,6.89
2023-02-19T14:41:32.838Z,6.88
2023-02-19T14:42:36.063Z,6.85
2023-02-19T14:43:39.052Z,6.81
2023-02-19T14:44:52.584Z,6.84
2023-02-19T14:46:24.433Z,6.83
2023-02-19T14:47:30.951Z,6.81
2023-02-19T14:48:39.756Z,6.85
2023-02-19T14:49:49.868Z,6.93
2023-02-19T14:50:57.681Z,6.93
2023-02-19T14:52:03.917Z,6.97
2023-02-19T14:53:07.837Z,6.83
2023-02-19T14:54:26.691Z,6.82
2023-02-19T14:55:42.628Z,6.88
2023-02-19T14:56:48.846Z,6.94
2023-02-19T14:57:54.021Z,6.95
2023-02-19T14:59:06.375Z,6.92
2023-02-19T15:00:27.604Z,6.82
2023-02-19T15:01:29.887Z,6.86
2023-02-19T15:02:32.912Z,6.74
2023-02-19T15:03:37.389Z,6.78
2023-02-19T15:04:40.303Z,6.78
2023-02-19T15:05:45.414Z,6.78